sensor_id;sensor_type;location;lat;lon;timestamp;temperature;humidity
15099;DHT22;33900;53.640;9.942;2024-03-02T00:00:51;12.20;90.10
15099;DHT22;33900;53.640;9.942;2024-03-02T00:03:17;12.20;90.10
15099;DHT22;33900;53.640;9.942;2024-03-02T00:05:43;12.20;90.10
15099;DHT22;33900;53.640;9.942;2024-03-02T00:08:08;12.20;90.10
15099;DHT22;33900;53.640;9.942;2024-03-02T00:10:37;12.20;90.20
15099;DHT22;33900;53.640;9.942;2024-03-02T00:13:05;12.20;90.10
15099;DHT22;33900;53.640;9.942;2024-03-02T00:15:41;12.10;90.20
15099;DHT22;33900;53.640;9.942;2024-03-02T00:18:14;12.20;90.20
15099;DHT22;33900;53.640;9.942;2024-03-02T00:20:40;12.10;90.20
15099;DHT22;33900;53.640;9.942;2024-03-02T00:23:06;12.10;90.20
15099;DHT22;33900;53.640;9.942;2024-03-02T00:25:51;12.10;90.20
15099;DHT22;33900;53.640;9.942;2024-03-02T00:28:21;12.10;90.20
15099;DHT22;33900;53.640;9.942;2024-03-02T00:30:56;12.10;90.20
15099;DHT22;33900;53.640;9.942;2024-03-02T00:33:26;12.10;90.30
15099;DHT22;33900;53.640;9.942;2024-03-02T00:35:52;12.00;90.30
15099;DHT22;33900;53.640;9.942;2024-03-02T00:38:17;12.00;90.30
15099;DHT22;33900;53.640;9.942;2024-03-02T00:40:43;12.00;90.30
15099;DHT22;33900;53.640;9.942;2024-03-02T00:43:18;12.00;90.40
15099;DHT22;33900;53.640;9.942;2024-03-02T00:45:51;11.90;90.40
15099;DHT22;33900;53.640;9.942;2024-03-02T00:48:16;12.00;90.40
15099;DHT22;33900;53.640;9.942;2024-03-02T00:50:42;11.90;90.40
15099;DHT22;33900;53.640;9.942;2024-03-02T00:53:09;11.90;90.50
15099;DHT22;33900;53.640;9.942;2024-03-02T00:55:36;11.90;90.50
15099;DHT22;33900;53.640;9.942;2024-03-02T00:58:02;11.90;90.50
15099;DHT22;33900;53.640;9.942;2024-03-02T01:00:28;11.90;90.60
15099;DHT22;33900;53.640;9.942;2024-03-02T01:02:53;11.80;90.60
15099;DHT22;33900;53.640;9.942;2024-03-02T01:05:20;11.80;90.60
15099;DHT22;33900;53.640;9.942;2024-03-02T01:07:45;11.80;90.70
15099;DHT22;33900;53.640;9.942;2024-03-02T01:10:11;11.80;90.70
15099;DHT22;33900;53.640;9.942;2024-03-02T01:12:36;11.80;90.80
15099;DHT22;33900;53.640;9.942;2024-03-02T01:15:02;11.80;90.70
15099;DHT22;33900;53.640;9.942;2024-03-02T01:17:31;11.70;90.70
15099;DHT22;33900;53.640;9.942;2024-03-02T01:19:56;11.70;90.80
15099;DHT22;33900;53.640;9.942;2024-03-02T01:22:23;11.70;90.90
15099;DHT22;33900;53.640;9.942;2024-03-02T01:24:51;11.70;90.90
15099;DHT22;33900;53.640;9.942;2024-03-02T01:27:16;11.70;90.90
15099;DHT22;33900;53.640;9.942;2024-03-02T01:29:42;11.70;91.00
15099;DHT22;33900;53.640;9.942;2024-03-02T01:32:07;11.60;91.10
15099;DHT22;33900;53.640;9.942;2024-03-02T01:34:33;11.60;91.10
15099;DHT22;33900;53.640;9.942;2024-03-02T01:36:58;11.60;91.10
15099;DHT22;33900;53.640;9.942;2024-03-02T01:39:24;11.60;91.30
15099;DHT22;33900;53.640;9.942;2024-03-02T01:41:49;11.50;91.40
15099;DHT22;33900;53.640;9.942;2024-03-02T01:44:15;11.60;91.40
15099;DHT22;33900;53.640;9.942;2024-03-02T01:46:40;11.50;91.40
15099;DHT22;33900;53.640;9.942;2024-03-02T01:49:06;11.50;91.40
15099;DHT22;33900;53.640;9.942;2024-03-02T01:51:32;11.50;91.40
15099;DHT22;33900;53.640;9.942;2024-03-02T01:53:57;11.50;91.50
15099;DHT22;33900;53.640;9.942;2024-03-02T01:56:23;11.50;91.60
15099;DHT22;33900;53.640;9.942;2024-03-02T01:58:49;11.50;91.60
15099;DHT22;33900;53.640;9.942;2024-03-02T02:01:15;11.50;91.70
15099;DHT22;33900;53.640;9.942;2024-03-02T02:03:42;11.40;91.70
15099;DHT22;33900;53.640;9.942;2024-03-02T02:06:09;11.40;91.80
15099;DHT22;33900;53.640;9.942;2024-03-02T02:08:36;11.40;91.80
15099;DHT22;33900;53.640;9.942;2024-03-02T02:11:02;11.40;91.80
15099;DHT22;33900;53.640;9.942;2024-03-02T02:13:27;11.30;91.80
15099;DHT22;33900;53.640;9.942;2024-03-02T02:15:53;11.30;91.90
15099;DHT22;33900;53.640;9.942;2024-03-02T02:18:18;11.30;91.90
15099;DHT22;33900;53.640;9.942;2024-03-02T02:20:44;11.30;92.00
15099;DHT22;33900;53.640;9.942;2024-03-02T02:23:09;11.30;92.10
15099;DHT22;33900;53.640;9.942;2024-03-02T02:25:35;11.30;92.10
15099;DHT22;33900;53.640;9.942;2024-03-02T02:28:01;11.30;92.30
15099;DHT22;33900;53.640;9.942;2024-03-02T02:30:28;11.30;92.20
15099;DHT22;33900;53.640;9.942;2024-03-02T02:32:54;11.20;92.30
15099;DHT22;33900;53.640;9.942;2024-03-02T02:35:19;11.20;92.30
15099;DHT22;33900;53.640;9.942;2024-03-02T02:37:45;11.20;92.30
15099;DHT22;33900;53.640;9.942;2024-03-02T02:40:12;11.20;92.40
15099;DHT22;33900;53.640;9.942;2024-03-02T02:42:38;11.20;92.30
15099;DHT22;33900;53.640;9.942;2024-03-02T02:45:04;11.20;92.40
15099;DHT22;33900;53.640;9.942;2024-03-02T02:47:29;11.20;92.40
15099;DHT22;33900;53.640;9.942;2024-03-02T02:49:55;11.20;92.90
15099;DHT22;33900;53.640;9.942;2024-03-02T02:52:21;11.20;92.50
15099;DHT22;33900;53.640;9.942;2024-03-02T02:54:46;11.20;92.50
15099;DHT22;33900;53.640;9.942;2024-03-02T02:57:12;11.20;92.50
15099;DHT22;33900;53.640;9.942;2024-03-02T02:59:37;11.20;92.70
15099;DHT22;33900;53.640;9.942;2024-03-02T03:02:03;11.10;92.70
15099;DHT22;33900;53.640;9.942;2024-03-02T03:04:29;11.10;92.60
15099;DHT22;33900;53.640;9.942;2024-03-02T03:06:55;11.10;92.60
15099;DHT22;33900;53.640;9.942;2024-03-02T03:12:49;11.10;92.60
15099;DHT22;33900;53.640;9.942;2024-03-02T03:15:15;11.10;92.60
15099;DHT22;33900;53.640;9.942;2024-03-02T03:17:41;11.10;92.60
15099;DHT22;33900;53.640;9.942;2024-03-02T03:20:07;11.10;92.70
15099;DHT22;33900;53.640;9.942;2024-03-02T03:22:35;11.10;92.70
15099;DHT22;33900;53.640;9.942;2024-03-02T03:25:01;11.10;92.90
15099;DHT22;33900;53.640;9.942;2024-03-02T03:27:27;11.10;92.80
15099;DHT22;33900;53.640;9.942;2024-03-02T03:29:52;11.00;92.80
15099;DHT22;33900;53.640;9.942;2024-03-02T03:32:17;11.00;92.80
15099;DHT22;33900;53.640;9.942;2024-03-02T03:34:43;11.00;92.80
15099;DHT22;33900;53.640;9.942;2024-03-02T03:37:09;11.00;92.80
15099;DHT22;33900;53.640;9.942;2024-03-02T03:39:35;11.00;92.80
15099;DHT22;33900;53.640;9.942;2024-03-02T03:42:04;11.10;92.90
15099;DHT22;33900;53.640;9.942;2024-03-02T03:44:29;11.10;92.90
15099;DHT22;33900;53.640;9.942;2024-03-02T03:46:55;11.00;92.90
15099;DHT22;33900;53.640;9.942;2024-03-02T03:49:20;11.00;93.20
15099;DHT22;33900;53.640;9.942;2024-03-02T03:51:46;11.00;93.00
15099;DHT22;33900;53.640;9.942;2024-03-02T03:54:11;11.00;93.00
15099;DHT22;33900;53.640;9.942;2024-03-02T03:56:37;11.00;93.00
15099;DHT22;33900;53.640;9.942;2024-03-02T03:59:03;11.00;93.00
15099;DHT22;33900;53.640;9.942;2024-03-02T04:01:30;11.00;93.00
15099;DHT22;33900;53.640;9.942;2024-03-02T04:03:56;11.00;93.00
15099;DHT22;33900;53.640;9.942;2024-03-02T04:06:21;11.00;93.00
15099;DHT22;33900;53.640;9.942;2024-03-02T04:08:47;11.00;93.00
15099;DHT22;33900;53.640;9.942;2024-03-02T04:11:12;11.00;93.10
15099;DHT22;33900;53.640;9.942;2024-03-02T04:13:38;10.90;93.10
15099;DHT22;33900;53.640;9.942;2024-03-02T04:16:03;10.90;93.00
15099;DHT22;33900;53.640;9.942;2024-03-02T04:18:30;11.00;93.00
15099;DHT22;33900;53.640;9.942;2024-03-02T04:20:56;10.90;93.00
15099;DHT22;33900;53.640;9.942;2024-03-02T04:23:21;10.90;93.10
15099;DHT22;33900;53.640;9.942;2024-03-02T04:25:47;11.00;93.10
15099;DHT22;33900;53.640;9.942;2024-03-02T04:28:12;11.00;93.10
15099;DHT22;33900;53.640;9.942;2024-03-02T04:30:38;10.90;93.00
15099;DHT22;33900;53.640;9.942;2024-03-02T04:33:04;10.90;93.00
15099;DHT22;33900;53.640;9.942;2024-03-02T04:35:31;10.90;93.00
15099;DHT22;33900;53.640;9.942;2024-03-02T04:37:56;10.90;93.10
15099;DHT22;33900;53.640;9.942;2024-03-02T04:40:22;10.90;93.10
15099;DHT22;33900;53.640;9.942;2024-03-02T04:42:47;10.90;93.10
15099;DHT22;33900;53.640;9.942;2024-03-02T04:45:13;10.90;93.10
15099;DHT22;33900;53.640;9.942;2024-03-02T04:47:38;10.90;93.10
15099;DHT22;33900;53.640;9.942;2024-03-02T04:50:04;10.90;93.10
15099;DHT22;33900;53.640;9.942;2024-03-02T04:52:30;10.90;93.20
15099;DHT22;33900;53.640;9.942;2024-03-02T04:54:55;10.80;93.10
15099;DHT22;33900;53.640;9.942;2024-03-02T04:57:40;10.80;93.20
15099;DHT22;33900;53.640;9.942;2024-03-02T05:00:06;10.80;93.20
15099;DHT22;33900;53.640;9.942;2024-03-02T05:02:34;10.80;93.20
15099;DHT22;33900;53.640;9.942;2024-03-02T05:04:59;10.80;93.10
15099;DHT22;33900;53.640;9.942;2024-03-02T05:07:25;10.80;93.10
15099;DHT22;33900;53.640;9.942;2024-03-02T05:09:50;10.80;93.10
15099;DHT22;33900;53.640;9.942;2024-03-02T05:12:16;10.80;93.20
15099;DHT22;33900;53.640;9.942;2024-03-02T05:15:20;10.80;93.20
15099;DHT22;33900;53.640;9.942;2024-03-02T05:17:46;10.80;93.10
15099;DHT22;33900;53.640;9.942;2024-03-02T05:20:12;10.80;93.10
15099;DHT22;33900;53.640;9.942;2024-03-02T05:22:38;10.80;93.10
15099;DHT22;33900;53.640;9.942;2024-03-02T05:25:04;10.80;93.10
15099;DHT22;33900;53.640;9.942;2024-03-02T05:27:29;10.80;93.10
15099;DHT22;33900;53.640;9.942;2024-03-02T05:29:55;10.80;93.10
15099;DHT22;33900;53.640;9.942;2024-03-02T05:32:21;10.80;93.10
15099;DHT22;33900;53.640;9.942;2024-03-02T05:34:46;10.80;93.40
15099;DHT22;33900;53.640;9.942;2024-03-02T05:37:12;10.80;93.00
15099;DHT22;33900;53.640;9.942;2024-03-02T05:39:37;10.70;93.00
15099;DHT22;33900;53.640;9.942;2024-03-02T05:42:03;10.80;93.10
15099;DHT22;33900;53.640;9.942;2024-03-02T05:44:29;10.90;93.10
15099;DHT22;33900;53.640;9.942;2024-03-02T05:46:55;10.80;93.10
15099;DHT22;33900;53.640;9.942;2024-03-02T05:49:20;10.80;93.00
15099;DHT22;33900;53.640;9.942;2024-03-02T05:51:46;10.80;93.00
15099;DHT22;33900;53.640;9.942;2024-03-02T05:54:11;10.80;93.00
15099;DHT22;33900;53.640;9.942;2024-03-02T05:56:37;10.80;93.00
15099;DHT22;33900;53.640;9.942;2024-03-02T05:59:02;10.70;92.90
15099;DHT22;33900;53.640;9.942;2024-03-02T06:01:41;10.70;92.90
15099;DHT22;33900;53.640;9.942;2024-03-02T06:04:08;10.70;92.90
15099;DHT22;33900;53.640;9.942;2024-03-02T06:06:34;10.70;92.90
15099;DHT22;33900;53.640;9.942;2024-03-02T06:09:03;10.80;93.00
15099;DHT22;33900;53.640;9.942;2024-03-02T06:11:39;10.80;93.00
15099;DHT22;33900;53.640;9.942;2024-03-02T06:14:06;10.70;92.90
15099;DHT22;33900;53.640;9.942;2024-03-02T06:16:32;10.70;92.90
15099;DHT22;33900;53.640;9.942;2024-03-02T06:18:58;10.80;92.90
15099;DHT22;33900;53.640;9.942;2024-03-02T06:21:23;10.70;92.90
15099;DHT22;33900;53.640;9.942;2024-03-02T06:23:49;10.70;92.90
15099;DHT22;33900;53.640;9.942;2024-03-02T06:26:14;10.80;92.90
15099;DHT22;33900;53.640;9.942;2024-03-02T06:28:40;10.80;92.90
15099;DHT22;33900;53.640;9.942;2024-03-02T06:31:06;10.70;92.90
15099;DHT22;33900;53.640;9.942;2024-03-02T06:33:32;10.70;92.90
15099;DHT22;33900;53.640;9.942;2024-03-02T06:35:57;10.70;92.90
15099;DHT22;33900;53.640;9.942;2024-03-02T06:38:23;10.70;92.90
15099;DHT22;33900;53.640;9.942;2024-03-02T06:40:48;10.70;92.90
15099;DHT22;33900;53.640;9.942;2024-03-02T06:43:14;10.70;92.90
15099;DHT22;33900;53.640;9.942;2024-03-02T06:45:39;10.60;92.80
15099;DHT22;33900;53.640;9.942;2024-03-02T06:48:05;10.60;92.80
15099;DHT22;33900;53.640;9.942;2024-03-02T06:50:30;10.60;92.80
15099;DHT22;33900;53.640;9.942;2024-03-02T06:52:56;10.60;92.80
15099;DHT22;33900;53.640;9.942;2024-03-02T06:55:22;10.60;92.90
15099;DHT22;33900;53.640;9.942;2024-03-02T06:57:50;10.60;92.90
15099;DHT22;33900;53.640;9.942;2024-03-02T07:00:15;10.60;92.90
15099;DHT22;33900;53.640;9.942;2024-03-02T07:02:43;10.60;92.90
15099;DHT22;33900;53.640;9.942;2024-03-02T07:05:10;10.60;92.90
15099;DHT22;33900;53.640;9.942;2024-03-02T07:07:35;10.60;92.90
15099;DHT22;33900;53.640;9.942;2024-03-02T07:10:02;10.70;92.90
15099;DHT22;33900;53.640;9.942;2024-03-02T07:12:31;10.70;92.90
15099;DHT22;33900;53.640;9.942;2024-03-02T07:14:57;10.70;92.90
15099;DHT22;33900;53.640;9.942;2024-03-02T07:17:28;10.70;92.90
15099;DHT22;33900;53.640;9.942;2024-03-02T07:19:54;10.70;92.90
15099;DHT22;33900;53.640;9.942;2024-03-02T07:22:19;10.70;92.80
15099;DHT22;33900;53.640;9.942;2024-03-02T07:24:45;10.70;92.90
15099;DHT22;33900;53.640;9.942;2024-03-02T07:27:14;10.70;92.90
15099;DHT22;33900;53.640;9.942;2024-03-02T07:29:40;10.80;92.90
15099;DHT22;33900;53.640;9.942;2024-03-02T07:32:06;10.70;92.80
15099;DHT22;33900;53.640;9.942;2024-03-02T07:34:32;10.70;92.80
15099;DHT22;33900;53.640;9.942;2024-03-02T07:36:58;10.70;92.80
15099;DHT22;33900;53.640;9.942;2024-03-02T07:39:23;10.70;92.90
15099;DHT22;33900;53.640;9.942;2024-03-02T07:41:49;10.70;92.90
15099;DHT22;33900;53.640;9.942;2024-03-02T08:02:29;10.90;92.80
15099;DHT22;33900;53.640;9.942;2024-03-02T08:04:55;10.80;92.70
15099;DHT22;33900;53.640;9.942;2024-03-02T08:07:20;10.80;92.70
15099;DHT22;33900;53.640;9.942;2024-03-02T08:09:46;10.80;92.70
15099;DHT22;33900;53.640;9.942;2024-03-02T08:12:11;10.80;92.70
15099;DHT22;33900;53.640;9.942;2024-03-02T08:14:37;10.90;92.80
15099;DHT22;33900;53.640;9.942;2024-03-02T08:17:02;10.90;92.70
15099;DHT22;33900;53.640;9.942;2024-03-02T08:19:28;10.80;92.60
15099;DHT22;33900;53.640;9.942;2024-03-02T08:21:54;10.90;92.70
15099;DHT22;33900;53.640;9.942;2024-03-02T08:24:19;10.90;92.70
15099;DHT22;33900;53.640;9.942;2024-03-02T08:26:45;10.90;92.70
15099;DHT22;33900;53.640;9.942;2024-03-02T08:29:10;10.90;92.60
15099;DHT22;33900;53.640;9.942;2024-03-02T08:31:36;10.90;92.60
15099;DHT22;33900;53.640;9.942;2024-03-02T08:34:02;11.00;92.60
15099;DHT22;33900;53.640;9.942;2024-03-02T08:36:28;11.00;92.70
15099;DHT22;33900;53.640;9.942;2024-03-02T08:38:53;11.00;92.60
15099;DHT22;33900;53.640;9.942;2024-03-02T08:41:19;11.00;92.60
15099;DHT22;33900;53.640;9.942;2024-03-02T08:43:44;11.00;92.60
15099;DHT22;33900;53.640;9.942;2024-03-02T08:46:10;11.00;92.60
15099;DHT22;33900;53.640;9.942;2024-03-02T08:48:35;11.10;92.60
15099;DHT22;33900;53.640;9.942;2024-03-02T08:51:01;11.10;92.60
15099;DHT22;33900;53.640;9.942;2024-03-02T08:53:28;11.20;92.60
15099;DHT22;33900;53.640;9.942;2024-03-02T08:55:53;11.20;92.60
15099;DHT22;33900;53.640;9.942;2024-03-02T08:58:20;11.20;92.60
15099;DHT22;33900;53.640;9.942;2024-03-02T09:00:46;11.30;92.60
15099;DHT22;33900;53.640;9.942;2024-03-02T09:03:17;11.30;92.50
15099;DHT22;33900;53.640;9.942;2024-03-02T09:05:43;11.30;92.50
15099;DHT22;33900;53.640;9.942;2024-03-02T09:08:08;11.40;92.60
15099;DHT22;33900;53.640;9.942;2024-03-02T09:10:34;11.40;92.60
15099;DHT22;33900;53.640;9.942;2024-03-02T09:12:59;11.50;92.60
15099;DHT22;33900;53.640;9.942;2024-03-02T09:15:25;11.60;92.40
15099;DHT22;33900;53.640;9.942;2024-03-02T09:17:50;11.70;92.50
15099;DHT22;33900;53.640;9.942;2024-03-02T09:20:15;11.70;92.30
15099;DHT22;33900;53.640;9.942;2024-03-02T09:22:42;11.80;92.30
15099;DHT22;33900;53.640;9.942;2024-03-02T09:25:07;11.90;92.20
15099;DHT22;33900;53.640;9.942;2024-03-02T09:27:37;11.90;92.10
15099;DHT22;33900;53.640;9.942;2024-03-02T09:30:04;12.00;92.10
15099;DHT22;33900;53.640;9.942;2024-03-02T09:32:30;12.00;91.80
15099;DHT22;33900;53.640;9.942;2024-03-02T09:34:56;12.10;91.90
15099;DHT22;33900;53.640;9.942;2024-03-02T09:37:21;12.10;91.90
15099;DHT22;33900;53.640;9.942;2024-03-02T09:39:47;12.20;91.40
15099;DHT22;33900;53.640;9.942;2024-03-02T09:42:12;12.20;91.40
15099;DHT22;33900;53.640;9.942;2024-03-02T09:44:38;12.20;91.50
15099;DHT22;33900;53.640;9.942;2024-03-02T09:47:04;12.30;91.60
15099;DHT22;33900;53.640;9.942;2024-03-02T09:49:31;12.40;91.50
15099;DHT22;33900;53.640;9.942;2024-03-02T09:51:56;12.50;91.60
15099;DHT22;33900;53.640;9.942;2024-03-02T09:54:22;12.70;91.70
15099;DHT22;33900;53.640;9.942;2024-03-02T09:56:47;12.80;92.10
15099;DHT22;33900;53.640;9.942;2024-03-02T09:59:13;13.00;91.70
15099;DHT22;33900;53.640;9.942;2024-03-02T10:01:55;13.20;91.50
15099;DHT22;33900;53.640;9.942;2024-03-02T10:04:20;13.40;90.20
15099;DHT22;33900;53.640;9.942;2024-03-02T10:06:46;13.40;90.00
15099;DHT22;33900;53.640;9.942;2024-03-02T10:09:13;13.50;90.30
15099;DHT22;33900;53.640;9.942;2024-03-02T10:11:51;13.60;89.70
15099;DHT22;33900;53.640;9.942;2024-03-02T10:14:17;13.70;90.10
15099;DHT22;33900;53.640;9.942;2024-03-02T10:16:44;13.90;90.30
15099;DHT22;33900;53.640;9.942;2024-03-02T10:19:19;14.20;90.50
15099;DHT22;33900;53.640;9.942;2024-03-02T10:21:46;14.50;90.00
15099;DHT22;33900;53.640;9.942;2024-03-02T10:24:11;14.60;90.20
15099;DHT22;33900;53.640;9.942;2024-03-02T10:26:38;14.60;87.50
15099;DHT22;33900;53.640;9.942;2024-03-02T10:29:03;14.50;84.50
15099;DHT22;33900;53.640;9.942;2024-03-02T10:31:29;14.40;85.10
15099;DHT22;33900;53.640;9.942;2024-03-02T10:33:55;14.30;85.30
15099;DHT22;33900;53.640;9.942;2024-03-02T10:36:21;14.30;86.20
15099;DHT22;33900;53.640;9.942;2024-03-02T10:38:46;14.20;86.60
15099;DHT22;33900;53.640;9.942;2024-03-02T10:41:16;14.20;86.70
15099;DHT22;33900;53.640;9.942;2024-03-02T10:43:42;14.20;86.30
15099;DHT22;33900;53.640;9.942;2024-03-02T10:46:08;14.20;86.90
15099;DHT22;33900;53.640;9.942;2024-03-02T10:48:34;14.10;85.60
15099;DHT22;33900;53.640;9.942;2024-03-02T10:51:01;14.10;85.60
15099;DHT22;33900;53.640;9.942;2024-03-02T10:53:27;14.00;85.90
15099;DHT22;33900;53.640;9.942;2024-03-02T10:55:55;13.90;84.30
15099;DHT22;33900;53.640;9.942;2024-03-02T10:58:22;13.90;84.70
15099;DHT22;33900;53.640;9.942;2024-03-02T11:00:50;13.80;85.20
15099;DHT22;33900;53.640;9.942;2024-03-02T11:03:16;13.80;86.60
15099;DHT22;33900;53.640;9.942;2024-03-02T11:05:44;13.90;86.20
15099;DHT22;33900;53.640;9.942;2024-03-02T11:08:13;13.90;85.80
15099;DHT22;33900;53.640;9.942;2024-03-02T11:10:57;13.80;85.60
15099;DHT22;33900;53.640;9.942;2024-03-02T11:13:32;13.80;85.80
15099;DHT22;33900;53.640;9.942;2024-03-02T11:16:05;13.90;86.10
15099;DHT22;33900;53.640;9.942;2024-03-02T11:18:31;13.90;85.90
15099;DHT22;33900;53.640;9.942;2024-03-02T11:20:57;13.90;85.10
15099;DHT22;33900;53.640;9.942;2024-03-02T11:23:33;13.90;85.50
15099;DHT22;33900;53.640;9.942;2024-03-02T11:26:18;13.90;85.60
15099;DHT22;33900;53.640;9.942;2024-03-02T11:28:44;13.90;85.20
15099;DHT22;33900;53.640;9.942;2024-03-02T11:31:10;13.90;85.70
15099;DHT22;33900;53.640;9.942;2024-03-02T11:33:36;14.00;85.00
15099;DHT22;33900;53.640;9.942;2024-03-02T11:36:01;13.90;85.30
15099;DHT22;33900;53.640;9.942;2024-03-02T11:38:27;14.00;84.80
15099;DHT22;33900;53.640;9.942;2024-03-02T11:40:53;14.00;85.30
15099;DHT22;33900;53.640;9.942;2024-03-02T11:43:19;14.00;85.50
15099;DHT22;33900;53.640;9.942;2024-03-02T11:45:44;14.00;85.60
15099;DHT22;33900;53.640;9.942;2024-03-02T11:48:11;14.00;84.50
15099;DHT22;33900;53.640;9.942;2024-03-02T11:50:42;14.00;84.90
15099;DHT22;33900;53.640;9.942;2024-03-02T11:53:08;14.00;85.00
15099;DHT22;33900;53.640;9.942;2024-03-02T11:55:38;14.00;84.60
15099;DHT22;33900;53.640;9.942;2024-03-02T11:58:12;14.00;85.20
15099;DHT22;33900;53.640;9.942;2024-03-02T12:00:37;14.00;83.60
15099;DHT22;33900;53.640;9.942;2024-03-02T12:03:04;14.00;84.30
15099;DHT22;33900;53.640;9.942;2024-03-02T12:05:31;14.00;85.30
15099;DHT22;33900;53.640;9.942;2024-03-02T12:07:57;14.00;83.60
15099;DHT22;33900;53.640;9.942;2024-03-02T12:10:23;14.00;83.20
15099;DHT22;33900;53.640;9.942;2024-03-02T12:12:54;14.00;83.40
15099;DHT22;33900;53.640;9.942;2024-03-02T12:15:22;14.00;83.90
15099;DHT22;33900;53.640;9.942;2024-03-02T12:17:48;14.00;84.20
15099;DHT22;33900;53.640;9.942;2024-03-02T12:20:13;14.00;84.10
15099;DHT22;33900;53.640;9.942;2024-03-02T12:22:39;14.00;83.20
15099;DHT22;33900;53.640;9.942;2024-03-02T12:25:04;14.00;82.60
15099;DHT22;33900;53.640;9.942;2024-03-02T12:27:30;14.00;83.20
15099;DHT22;33900;53.640;9.942;2024-03-02T12:29:55;14.00;83.60
15099;DHT22;33900;53.640;9.942;2024-03-02T12:32:21;14.10;83.60
15099;DHT22;33900;53.640;9.942;2024-03-02T12:34:47;14.10;83.90
15099;DHT22;33900;53.640;9.942;2024-03-02T12:37:13;14.10;83.40
15099;DHT22;33900;53.640;9.942;2024-03-02T12:39:39;14.10;82.00
15099;DHT22;33900;53.640;9.942;2024-03-02T12:42:04;14.10;82.40
15099;DHT22;33900;53.640;9.942;2024-03-02T12:44:30;14.10;82.00
15099;DHT22;33900;53.640;9.942;2024-03-02T12:46:55;14.10;82.20
15099;DHT22;33900;53.640;9.942;2024-03-02T12:49:21;14.20;82.60
15099;DHT22;33900;53.640;9.942;2024-03-02T12:51:47;14.10;82.60
15099;DHT22;33900;53.640;9.942;2024-03-02T12:54:17;14.20;83.00
15099;DHT22;33900;53.640;9.942;2024-03-02T12:56:42;14.20;82.40
15099;DHT22;33900;53.640;9.942;2024-03-02T12:59:17;14.20;81.90
15099;DHT22;33900;53.640;9.942;2024-03-02T13:01:52;14.20;82.40
15099;DHT22;33900;53.640;9.942;2024-03-02T13:04:22;14.20;81.50
15099;DHT22;33900;53.640;9.942;2024-03-02T13:06:47;14.20;80.00
15099;DHT22;33900;53.640;9.942;2024-03-02T13:09:13;14.20;80.60
15099;DHT22;33900;53.640;9.942;2024-03-02T13:11:40;14.20;80.70
15099;DHT22;33900;53.640;9.942;2024-03-02T13:14:06;14.20;81.20
15099;DHT22;33900;53.640;9.942;2024-03-02T13:16:32;14.20;80.80
15099;DHT22;33900;53.640;9.942;2024-03-02T13:19:03;14.20;80.50
15099;DHT22;33900;53.640;9.942;2024-03-02T13:21:29;14.20;81.00
15099;DHT22;33900;53.640;9.942;2024-03-02T13:23:54;14.20;81.00
15099;DHT22;33900;53.640;9.942;2024-03-02T13:26:19;14.30;80.70
15099;DHT22;33900;53.640;9.942;2024-03-02T13:28:45;14.30;79.80
15099;DHT22;33900;53.640;9.942;2024-03-02T13:31:11;14.30;80.60
15099;DHT22;33900;53.640;9.942;2024-03-02T13:33:37;14.30;81.00
15099;DHT22;33900;53.640;9.942;2024-03-02T13:36:03;14.40;81.40
15099;DHT22;33900;53.640;9.942;2024-03-02T13:38:28;14.40;80.10
15099;DHT22;33900;53.640;9.942;2024-03-02T13:40:54;14.50;80.30
15099;DHT22;33900;53.640;9.942;2024-03-02T13:43:19;14.50;80.50
15099;DHT22;33900;53.640;9.942;2024-03-02T13:45:45;14.60;80.70
15099;DHT22;33900;53.640;9.942;2024-03-02T13:48:11;14.70;81.00
15099;DHT22;33900;53.640;9.942;2024-03-02T13:50:36;14.80;81.20
15099;DHT22;33900;53.640;9.942;2024-03-02T13:53:02;14.90;79.60
15099;DHT22;33900;53.640;9.942;2024-03-02T13:55:28;15.00;80.00
15099;DHT22;33900;53.640;9.942;2024-03-02T13:57:54;15.00;80.30
15099;DHT22;33900;53.640;9.942;2024-03-02T14:00:19;15.10;79.60
15099;DHT22;33900;53.640;9.942;2024-03-02T14:02:45;15.10;79.70
15099;DHT22;33900;53.640;9.942;2024-03-02T14:05:11;15.20;80.20
15099;DHT22;33900;53.640;9.942;2024-03-02T14:07:37;15.20;78.70
15099;DHT22;33900;53.640;9.942;2024-03-02T14:10:03;15.30;79.40
15099;DHT22;33900;53.640;9.942;2024-03-02T14:12:29;15.30;79.10
15099;DHT22;33900;53.640;9.942;2024-03-02T14:14:54;15.30;79.00
15099;DHT22;33900;53.640;9.942;2024-03-02T14:17:24;15.40;78.30
15099;DHT22;33900;53.640;9.942;2024-03-02T14:19:49;15.40;78.10
15099;DHT22;33900;53.640;9.942;2024-03-02T14:22:15;15.40;77.60
15099;DHT22;33900;53.640;9.942;2024-03-02T14:24:43;15.40;78.00
15099;DHT22;33900;53.640;9.942;2024-03-02T14:27:08;15.40;78.10
15099;DHT22;33900;53.640;9.942;2024-03-02T14:29:34;15.40;78.10
15099;DHT22;33900;53.640;9.942;2024-03-02T14:32:03;15.40;77.30
15099;DHT22;33900;53.640;9.942;2024-03-02T14:34:29;15.40;77.50
15099;DHT22;33900;53.640;9.942;2024-03-02T14:36:54;15.40;78.00
15099;DHT22;33900;53.640;9.942;2024-03-02T14:39:20;15.40;77.20
15099;DHT22;33900;53.640;9.942;2024-03-02T14:41:46;15.40;77.10
15099;DHT22;33900;53.640;9.942;2024-03-02T14:44:12;15.30;76.70
15099;DHT22;33900;53.640;9.942;2024-03-02T14:46:37;15.30;77.60
15099;DHT22;33900;53.640;9.942;2024-03-02T14:49:03;15.30;77.90
15099;DHT22;33900;53.640;9.942;2024-03-02T14:51:29;15.30;77.90
15099;DHT22;33900;53.640;9.942;2024-03-02T14:53:55;15.30;77.50
15099;DHT22;33900;53.640;9.942;2024-03-02T14:56:21;15.30;77.50
15099;DHT22;33900;53.640;9.942;2024-03-02T14:58:46;15.20;77.10
15099;DHT22;33900;53.640;9.942;2024-03-02T15:01:12;15.20;77.40
15099;DHT22;33900;53.640;9.942;2024-03-02T15:03:38;15.20;76.60
15099;DHT22;33900;53.640;9.942;2024-03-02T15:06:04;15.10;76.30
15099;DHT22;33900;53.640;9.942;2024-03-02T15:08:30;15.10;76.80
15099;DHT22;33900;53.640;9.942;2024-03-02T15:10:55;15.10;77.20
15099;DHT22;33900;53.640;9.942;2024-03-02T15:13:21;15.00;77.00
15099;DHT22;33900;53.640;9.942;2024-03-02T15:15:47;15.00;76.90
15099;DHT22;33900;53.640;9.942;2024-03-02T15:18:12;15.00;76.20
15099;DHT22;33900;53.640;9.942;2024-03-02T15:20:38;14.90;76.70
15099;DHT22;33900;53.640;9.942;2024-03-02T15:23:03;14.90;77.30
15099;DHT22;33900;53.640;9.942;2024-03-02T15:25:29;14.90;77.40
15099;DHT22;33900;53.640;9.942;2024-03-02T15:27:55;14.90;76.80
15099;DHT22;33900;53.640;9.942;2024-03-02T15:30:21;14.90;77.00
15099;DHT22;33900;53.640;9.942;2024-03-02T15:32:46;14.90;77.30
15099;DHT22;33900;53.640;9.942;2024-03-02T15:35:12;14.90;77.20
15099;DHT22;33900;53.640;9.942;2024-03-02T15:37:37;14.90;77.70
15099;DHT22;33900;53.640;9.942;2024-03-02T15:40:03;14.80;78.10
15099;DHT22;33900;53.640;9.942;2024-03-02T15:42:34;14.80;78.30
15099;DHT22;33900;53.640;9.942;2024-03-02T15:45:00;14.80;78.60
15099;DHT22;33900;53.640;9.942;2024-03-02T15:47:25;14.80;78.20